logo
Search for airport 
image banner adimage banner adimage banner ad
image banner ad

SBPJ - Palmas / Brigadeiro Lysias Rodrigues

Located in Palmas / Brigadeiro Lysias Rodrigues, Brazil

ICAO - SBPJ, IATA - PMW

Data provided by Airmate  

General information

Coordinates: S10°17'24" W48°21'28"
Elevation is 774 feet MSL.
Magnetic variation is -21.0° East
View others Airports in Tocatins

Operational data

Special qualification required
Current time UTC:
Current local time:
Weather
METAR: SBPJ 140400Z 09003KT 9999 FEW009 SCT014 24/23 Q1012
TAF: TAF SBPJ 140315Z 1406/1506 05005KT 9999 SCT020 FEW030TCU TN25/1408Z TX29/1415Z TEMPO 1406/1409 3500 TSRA BKN013 FEW030CB BECMG 1410/1413 25005KT SCT015 BECMG 1414/1416 33007KT BKN020 FEW030TCU TEMPO 1418/1506 09007KT 4000 TSRA BKN015 FEW030CB RMK PHN
View NOTAMs / SUP AIP / TFR affecting this airport [VIEW]
Communications frequencies: [VIEW]

Runways:

RWY identifierQFULength (ft)Width (ft)SurfaceLDA (ft)
14124°2620280ASPH
32304°2620280ASPH

Airport contact information

Address: Palmas / Brigadeiro Lysias Rodrigues Brazil

Satellite view of SBPJ